Time;durP1;ratioP1;P1;durP2;ratioP2;P2;SDS_P1;SDS_P2;PMS_P1;PMS_P2;Temp;Humidity;BMP_temperature;BMP_pressure;BME280_temperature;BME280_humidity;BME280_pressure;Samples;Min_cycle;Max_cycle;Signal;HPM_P1;HPM_P2
2022/06/04 00:00:47;;;;;;;13.60;11.98;;;;;;;;;;4995283;28;20101;-84
2022/06/04 00:03:13;;;;;;;15.05;11.80;;;;;;;;;;5000251;28;20034;-83
2022/06/04 00:05:41;;;;;;;13.27;10.98;;;;;;;;;;5000164;28;20061;-84
2022/06/04 00:08:08;;;;;;;13.55;10.50;;;;;;;;;;5014566;28;20030;-83
2022/06/04 00:16:07;;;;;;;12.25;9.70;;;;;;;;;;4997584;28;20089;-85
2022/06/04 00:18:33;;;;;;;12.98;10.48;;;;;;;;;;4985116;28;20038;-84
2022/06/04 00:20:59;;;;;;;13.82;9.77;;;;;;;;;;4996174;28;20073;-83
2022/06/04 00:23:26;;;;;;;12.93;10.18;;;;;;;;;;4997542;28;20400;-83
2022/06/04 00:25:54;;;;;;;10.57;9.40;;;;;;;;;;4997293;28;20065;-83
2022/06/04 00:28:21;;;;;;;13.65;10.98;;;;;;;;;;4996053;28;20045;-85
2022/06/04 00:30:47;;;;;;;11.98;10.55;;;;;;;;;;4997183;28;20037;-83
2022/06/04 00:33:13;;;;;;;12.13;10.57;;;;;;;;;;4992915;28;20661;-84
2022/06/04 00:35:40;;;;;;;13.73;10.25;;;;;;;;;;4994904;28;20022;-84
2022/06/04 00:38:12;;;;;;;15.88;10.90;;;;;;;;;;4977456;28;20038;-84
2022/06/04 00:40:47;;;;;;;12.40;10.52;;;;;;;;;;4980521;28;20058;-85
2022/06/04 00:43:13;;;;;;;12.63;10.48;;;;;;;;;;4985381;28;20127;-84
2022/06/04 00:46:05;;;;;;;12.25;10.18;;;;;;;;;;4994024;28;20031;-83
2022/06/04 00:48:32;;;;;;;12.02;10.52;;;;;;;;;;4985719;28;20103;-85
2022/06/04 00:50:58;;;;;;;11.50;9.40;;;;;;;;;;4997745;28;20019;-83
2022/06/04 00:53:24;;;;;;;12.57;9.45;;;;;;;;;;5013848;23;20061;-88
2022/06/04 00:55:56;;;;;;;13.60;10.70;;;;;;;;;;4998570;28;20033;-87
2022/06/04 00:58:43;;;;;;;12.57;10.63;;;;;;;;;;4997951;28;20046;-89
2022/06/04 01:01:24;;;;;;;13.00;10.88;;;;;;;;;;4996528;28;20026;-88
2022/06/04 01:04:00;;;;;;;12.70;9.82;;;;;;;;;;5016000;28;20025;-89
2022/06/04 01:06:29;;;;;;;10.80;9.45;;;;;;;;;;5017925;28;20060;-88
2022/06/04 01:09:00;;;;;;;11.13;9.68;;;;;;;;;;5016177;28;20034;-88
2022/06/04 01:12:10;;;;;;;12.60;10.23;;;;;;;;;;5015028;28;20307;-88
2022/06/04 01:14:39;;;;;;;13.68;10.50;;;;;;;;;;4996597;28;20045;-88
2022/06/04 01:17:12;;;;;;;13.55;10.70;;;;;;;;;;5017767;28;20076;-87
2022/06/04 01:19:45;;;;;;;12.55;10.40;;;;;;;;;;5016366;28;20121;-88
2022/06/04 01:22:23;;;;;;;12.18;9.57;;;;;;;;;;5017913;28;20020;-88
2022/06/04 01:25:05;;;;;;;11.93;9.05;;;;;;;;;;5016821;28;20094;-88
2022/06/04 01:27:31;;;;;;;;;;;;;;;;;;5017919;28;20018;-87
2022/06/04 01:30:06;;;;;;;10.30;8.65;;;;;;;;;;5015812;28;19992;-87
2022/06/04 01:32:36;;;;;;;10.18;8.73;;;;;;;;;;5015655;28;20036;-87
2022/06/04 01:35:02;;;;;;;10.40;9.07;;;;;;;;;;5019098;28;20014;-86
2022/06/04 01:37:48;;;;;;;11.93;9.10;;;;;;;;;;5017083;28;20036;-87
2022/06/04 01:43:00;;;;;;;12.63;9.35;;;;;;;;;;5018731;28;20041;-88
2022/06/04 01:45:27;;;;;;;10.02;8.18;;;;;;;;;;5017373;28;20018;-88
2022/06/04 01:47:54;;;;;;;13.55;8.18;;;;;;;;;;5015527;28;20460;-88
2022/06/04 01:50:28;;;;;;;13.57;9.25;;;;;;;;;;5017540;28;20053;-86
2022/06/04 01:52:55;;;;;;;14.18;9.55;;;;;;;;;;5016897;28;20128;-88
2022/06/04 01:55:30;;;;;;;9.60;8.23;;;;;;;;;;5018421;28;20045;-88
2022/06/04 01:57:57;;;;;;;10.88;8.45;;;;;;;;;;5017250;28;20089;-87
2022/06/04 02:00:32;;;;;;;10.20;8.48;;;;;;;;;;5017322;28;20041;-88
2022/06/04 02:03:22;;;;;;;13.30;8.40;;;;;;;;;;5018402;28;20034;-88
2022/06/04 02:05:54;;;;;;;8.98;7.22;;;;;;;;;;5017102;28;20124;-88
2022/06/04 02:08:25;;;;;;;10.02;8.32;;;;;;;;;;5014984;28;20050;-87
2022/06/04 02:11:26;;;;;;;9.68;7.60;;;;;;;;;;5001015;28;20026;-89
2022/06/04 02:13:52;;;;;;;;;;;;;;;;;;4939688;29;20036;-88
2022/06/04 02:16:30;;;;;;;7.75;6.20;;;;;;;;;;4986520;28;19915;-88
2022/06/04 02:18:57;;;;;;;9.95;7.13;;;;;;;;;;5016044;28;20030;-88
2022/06/04 02:21:27;;;;;;;10.77;6.50;;;;;;;;;;5016981;28;20018;-87
2022/06/04 02:23:55;;;;;;;10.82;7.70;;;;;;;;;;5012831;28;20132;-89
2022/06/04 02:26:21;;;;;;;14.52;8.00;;;;;;;;;;5011800;28;20037;-88
2022/06/04 02:28:47;;;;;;;10.27;8.00;;;;;;;;;;5008903;28;20031;-88
2022/06/04 02:31:39;;;;;;;10.75;7.43;;;;;;;;;;5008758;28;20460;-87
2022/06/04 02:34:26;;;;;;;7.80;6.55;;;;;;;;;;4977972;28;20057;-88
2022/06/04 02:37:02;;;;;;;8.60;7.25;;;;;;;;;;5019586;28;20031;-87
2022/06/04 02:39:43;;;;;;;9.50;7.28;;;;;;;;;;4992442;28;20030;-89
2022/06/04 02:42:24;;;;;;;9.85;7.22;;;;;;;;;;4993188;28;20396;-88
2022/06/04 02:44:52;;;;;;;8.40;6.63;;;;;;;;;;4992200;28;20034;-89
2022/06/04 02:47:20;;;;;;;9.75;6.63;;;;;;;;;;5006312;28;20084;-86
2022/06/04 02:49:53;;;;;;;8.23;7.07;;;;;;;;;;4992057;28;20061;-88
2022/06/04 02:52:20;;;;;;;9.70;6.85;;;;;;;;;;5010468;28;20030;-88
2022/06/04 02:54:50;;;;;;;8.15;6.72;;;;;;;;;;5011784;28;20104;-89
2022/06/04 02:57:17;;;;;;;7.70;6.38;;;;;;;;;;5012693;28;20034;-87
2022/06/04 02:59:44;;;;;;;10.70;7.88;;;;;;;;;;5011826;28;20503;-88
2022/06/04 03:02:12;;;;;;;10.82;6.72;;;;;;;;;;5012622;28;20068;-86
2022/06/04 03:04:49;;;;;;;10.10;6.85;;;;;;;;;;5013123;28;20026;-86
2022/06/04 03:07:16;;;;;;;9.23;7.15;;;;;;;;;;5008521;28;20149;-89
2022/06/04 03:09:44;;;;;;;9.52;7.10;;;;;;;;;;4999352;28;20041;-88
2022/06/04 03:12:12;;;;;;;8.35;6.75;;;;;;;;;;5011274;28;20088;-88
2022/06/04 03:14:38;;;;;;;9.15;6.20;;;;;;;;;;5011235;28;20026;-88
2022/06/04 03:17:06;;;;;;;12.68;7.00;;;;;;;;;;5012240;28;20026;-88
2022/06/04 03:19:32;;;;;;;8.23;6.50;;;;;;;;;;5012844;28;20022;-87
2022/06/04 03:22:00;;;;;;;11.63;7.28;;;;;;;;;;5011753;28;20068;-87
2022/06/04 03:24:26;;;;;;;10.55;6.80;;;;;;;;;;5011719;28;20022;-88
2022/06/04 03:26:52;;;;;;;8.07;6.82;;;;;;;;;;5012231;28;20026;-87
2022/06/04 03:29:18;;;;;;;7.40;6.65;;;;;;;;;;5012552;28;20539;-87
2022/06/04 03:31:44;;;;;;;8.63;6.28;;;;;;;;;;5012530;28;20018;-87
2022/06/04 03:34:11;;;;;;;7.88;6.03;;;;;;;;;;5011148;28;20030;-87
2022/06/04 03:36:37;;;;;;;6.93;6.22;;;;;;;;;;5029230;28;20026;-86
2022/06/04 03:39:04;;;;;;;6.90;5.97;;;;;;;;;;5023643;28;20102;-87
2022/06/04 03:41:30;;;;;;;7.15;6.45;;;;;;;;;;5012058;28;20030;-88
2022/06/04 03:43:56;;;;;;;8.82;6.80;;;;;;;;;;5012446;28;20040;-89
2022/06/04 03:46:24;;;;;;;10.45;6.82;;;;;;;;;;5007289;28;20092;-88
2022/06/04 03:48:50;;;;;;;10.63;7.38;;;;;;;;;;4992654;28;20073;-88
2022/06/04 03:51:16;;;;;;;9.18;7.22;;;;;;;;;;4991161;28;20026;-88
2022/06/04 03:53:42;;;;;;;10.45;7.10;;;;;;;;;;4992470;28;20378;-88
2022/06/04 03:56:09;;;;;;;12.05;7.90;;;;;;;;;;4999268;28;20037;-88
2022/06/04 03:58:35;;;;;;;8.85;7.13;;;;;;;;;;5011239;28;20088;-88
2022/06/04 04:01:11;;;;;;;9.38;7.40;;;;;;;;;;5011315;28;20022;-87
2022/06/04 04:03:37;;;;;;;7.78;6.57;;;;;;;;;;5012167;28;20030;-88
2022/06/04 04:06:03;;;;;;;8.07;6.93;;;;;;;;;;5010818;28;20442;-87
2022/06/04 04:08:30;;;;;;;7.10;6.30;;;;;;;;;;5012508;28;20029;-88
2022/06/04 04:10:56;;;;;;;7.55;6.40;;;;;;;;;;5012244;28;20045;-89
2022/06/04 04:13:22;;;;;;;7.35;6.50;;;;;;;;;;5011904;28;20030;-90
2022/06/04 04:15:48;;;;;;;8.23;6.63;;;;;;;;;;5011640;28;20107;-88
2022/06/04 04:18:14;;;;;;;7.55;6.50;;;;;;;;;;5012130;28;20029;-88
2022/06/04 04:20:41;;;;;;;6.85;6.10;;;;;;;;;;5011708;28;20080;-89
2022/06/04 04:23:08;;;;;;;9.95;6.60;;;;;;;;;;5010606;28;20437;-88
2022/06/04 04:25:35;;;;;;;7.47;6.60;;;;;;;;;;5011494;28;20061;-88
2022/06/04 04:28:01;;;;;;;7.38;6.25;;;;;;;;;;5011570;28;20121;-87
2022/06/04 04:30:30;;;;;;;9.02;7.13;;;;;;;;;;5011600;28;20041;-88
2022/06/04 04:32:57;;;;;;;8.88;6.53;;;;;;;;;;5012100;28;20041;-88
2022/06/04 04:35:25;;;;;;;7.50;6.15;;;;;;;;;;5012449;28;20033;-88
2022/06/04 04:37:51;;;;;;;6.63;5.95;;;;;;;;;;5015317;28;20014;-89
2022/06/04 04:40:18;;;;;;;7.25;6.55;;;;;;;;;;5014037;28;20028;-88
2022/06/04 04:42:45;;;;;;;7.40;6.50;;;;;;;;;;5014404;28;20026;-86
2022/06/04 04:45:11;;;;;;;6.90;5.55;;;;;;;;;;5015052;28;20116;-86
2022/06/04 04:47:38;;;;;;;6.72;5.85;;;;;;;;;;5025692;28;20033;-86
2022/06/04 04:50:06;;;;;;;6.60;6.00;;;;;;;;;;5035261;28;20183;-88
2022/06/04 04:52:32;;;;;;;7.55;6.07;;;;;;;;;;5033388;28;20037;-86
2022/06/04 04:54:58;;;;;;;7.97;6.63;;;;;;;;;;5023890;28;20045;-88
2022/06/04 04:57:24;;;;;;;11.95;7.43;;;;;;;;;;5015064;28;20052;-88
2022/06/04 04:59:50;;;;;;;9.75;6.60;;;;;;;;;;5015160;28;20403;-88
2022/06/04 05:02:16;;;;;;;9.52;7.00;;;;;;;;;;5015409;28;20030;-87
2022/06/04 05:04:42;;;;;;;7.38;6.50;;;;;;;;;;5013706;28;20025;-87
2022/06/04 05:07:11;;;;;;;8.63;5.97;;;;;;;;;;5010782;28;20408;-87
2022/06/04 05:09:39;;;;;;;9.00;6.47;;;;;;;;;;4995354;28;20022;-87
2022/06/04 05:12:05;;;;;;;8.35;6.65;;;;;;;;;;5014736;28;20030;-87
2022/06/04 05:14:31;;;;;;;9.20;6.55;;;;;;;;;;5014764;28;20026;-88
2022/06/04 05:16:57;;;;;;;7.90;7.10;;;;;;;;;;5013645;28;20094;-88
2022/06/04 05:19:23;;;;;;;7.88;6.85;;;;;;;;;;5032927;28;20037;-89
2022/06/04 05:21:53;;;;;;;7.60;6.80;;;;;;;;;;5020551;28;20117;-87
2022/06/04 05:24:21;;;;;;;8.43;6.88;;;;;;;;;;5015624;28;20030;-87
2022/06/04 05:26:47;;;;;;;8.25;6.57;;;;;;;;;;5013553;28;20029;-88
2022/06/04 05:29:14;;;;;;;9.20;6.63;;;;;;;;;;5013128;28;20446;-87
2022/06/04 05:31:40;;;;;;;7.78;6.97;;;;;;;;;;5014301;28;20460;-88
2022/06/04 05:34:07;;;;;;;9.57;7.32;;;;;;;;;;5015736;28;20034;-88
2022/06/04 05:36:33;;;;;;;6.95;6.25;;;;;;;;;;5012756;28;20088;-87
2022/06/04 05:38:59;;;;;;;8.93;6.93;;;;;;;;;;5014355;28;20033;-87
2022/06/04 05:41:25;;;;;;;7.70;6.90;;;;;;;;;;5012746;28;20445;-88
2022/06/04 05:43:52;;;;;;;9.45;7.00;;;;;;;;;;5014125;28;20495;-88
2022/06/04 05:46:20;;;;;;;10.40;6.95;;;;;;;;;;5012795;28;20022;-87
2022/06/04 05:48:46;;;;;;;8.80;6.53;;;;;;;;;;5012720;28;20253;-88
2022/06/04 05:51:14;;;;;;;8.02;7.13;;;;;;;;;;5012744;28;20036;-87
2022/06/04 05:53:40;;;;;;;8.52;7.10;;;;;;;;;;5013252;28;20038;-87
2022/06/04 05:56:10;;;;;;;10.98;7.88;;;;;;;;;;5014094;28;20108;-86
2022/06/04 05:58:36;;;;;;;7.85;6.30;;;;;;;;;;5013183;28;20030;-87
2022/06/04 06:01:02;;;;;;;11.32;6.53;;;;;;;;;;5013158;28;20025;-88
2022/06/04 06:03:28;;;;;;;11.40;6.97;;;;;;;;;;5013276;28;20026;-87
2022/06/04 06:05:54;;;;;;;7.53;6.72;;;;;;;;;;5013710;28;20025;-87
2022/06/04 06:08:20;;;;;;;11.93;7.00;;;;;;;;;;5030669;28;20030;-88
2022/06/04 06:10:46;;;;;;;7.88;7.00;;;;;;;;;;5020172;28;20037;-87
2022/06/04 06:13:12;;;;;;;7.50;6.68;;;;;;;;;;5014770;28;20101;-88
2022/06/04 06:15:38;;;;;;;7.65;6.72;;;;;;;;;;5014414;28;20022;-88
2022/06/04 06:18:06;;;;;;;8.43;6.15;;;;;;;;;;5013868;28;20054;-86
2022/06/04 06:20:32;;;;;;;8.32;6.20;;;;;;;;;;5014139;28;20046;-87
2022/06/04 06:22:58;;;;;;;11.68;6.72;;;;;;;;;;5012942;28;20029;-88
2022/06/04 06:25:24;;;;;;;8.02;6.60;;;;;;;;;;5014326;28;20030;-87
2022/06/04 06:27:51;;;;;;;6.70;5.88;;;;;;;;;;5015046;28;20034;-87
2022/06/04 06:30:17;;;;;;;8.32;5.28;;;;;;;;;;5013889;28;20040;-88
2022/06/04 06:32:43;;;;;;;6.38;5.25;;;;;;;;;;5014137;28;20033;-88
2022/06/04 06:35:09;;;;;;;7.43;5.93;;;;;;;;;;5012675;28;20107;-88
2022/06/04 06:37:36;;;;;;;8.70;6.38;;;;;;;;;;5013901;28;20033;-87
2022/06/04 06:40:02;;;;;;;7.75;6.53;;;;;;;;;;5012381;28;20014;-87
2022/06/04 06:42:28;;;;;;;9.02;5.82;;;;;;;;;;5012106;28;20033;-87
2022/06/04 06:44:54;;;;;;;9.80;6.25;;;;;;;;;;5013565;28;20091;-87
2022/06/04 06:47:21;;;;;;;7.38;5.93;;;;;;;;;;5012888;28;20061;-87
2022/06/04 06:49:47;;;;;;;7.03;5.95;;;;;;;;;;5012373;28;20387;-88
2022/06/04 06:52:13;;;;;;;7.40;5.85;;;;;;;;;;5012573;28;20030;-88
2022/06/04 06:54:39;;;;;;;8.57;5.53;;;;;;;;;;5014502;28;20060;-85
2022/06/04 06:57:07;;;;;;;6.43;5.82;;;;;;;;;;5012268;28;20057;-85
2022/06/04 06:59:33;;;;;;;6.55;5.85;;;;;;;;;;5011988;28;20033;-86
2022/06/04 07:01:59;;;;;;;8.30;6.22;;;;;;;;;;5008834;28;20053;-86
2022/06/04 07:04:26;;;;;;;7.47;5.55;;;;;;;;;;5011590;28;20080;-84
2022/06/04 07:06:53;;;;;;;6.10;5.50;;;;;;;;;;5012066;28;20041;-92
2022/06/04 07:09:24;;;;;;;7.40;5.53;;;;;;;;;;5013541;28;20077;-92
2022/06/04 07:11:52;;;;;;;6.82;6.05;;;;;;;;;;5013067;28;20071;-93
2022/06/04 07:14:19;;;;;;;6.63;5.72;;;;;;;;;;5013528;28;20076;-89
2022/06/04 07:16:45;;;;;;;6.22;5.63;;;;;;;;;;5011061;28;20022;-89
2022/06/04 07:19:13;;;;;;;6.50;5.70;;;;;;;;;;5012490;28;20018;-90
2022/06/04 07:21:39;;;;;;;9.13;6.25;;;;;;;;;;5010363;28;20169;-88
2022/06/04 07:24:06;;;;;;;6.70;5.50;;;;;;;;;;5010845;28;20483;-90
2022/06/04 07:26:34;;;;;;;8.32;5.90;;;;;;;;;;5011090;28;20025;-91
2022/06/04 07:29:01;;;;;;;7.68;5.75;;;;;;;;;;5010989;28;20076;-90
2022/06/04 07:31:29;;;;;;;5.65;4.90;;;;;;;;;;5010765;28;20042;-90
2022/06/04 07:33:56;;;;;;;7.72;5.65;;;;;;;;;;5010687;28;20116;-91
2022/06/04 07:36:33;;;;;;;7.90;5.32;;;;;;;;;;5010570;28;20109;-90
2022/06/04 07:38:59;;;;;;;6.07;5.50;;;;;;;;;;5010836;28;20024;-90
2022/06/04 07:41:28;;;;;;;7.65;5.53;;;;;;;;;;5011490;28;20022;-90
2022/06/04 07:43:54;;;;;;;6.07;5.22;;;;;;;;;;5012414;28;20101;-90
2022/06/04 07:46:21;;;;;;;6.05;5.15;;;;;;;;;;5012126;28;20022;-89
2022/06/04 07:48:47;;;;;;;5.65;4.97;;;;;;;;;;5012600;28;20029;-89
2022/06/04 07:51:14;;;;;;;6.03;5.20;;;;;;;;;;5007833;28;20077;-90
2022/06/04 07:53:40;;;;;;;8.00;5.70;;;;;;;;;;5011889;28;20081;-91
2022/06/04 07:56:14;;;;;;;7.60;5.22;;;;;;;;;;5011555;28;20033;-90
2022/06/04 07:58:40;;;;;;;5.95;4.72;;;;;;;;;;5011141;28;20026;-90
2022/06/04 08:01:07;;;;;;;8.48;4.80;;;;;;;;;;5010531;28;20037;-90
2022/06/04 08:03:34;;;;;;;6.63;4.47;;;;;;;;;;5010452;28;20033;-91
2022/06/04 08:06:01;;;;;;;5.65;4.85;;;;;;;;;;5000348;28;20345;-91
2022/06/04 08:08:27;;;;;;;6.28;5.03;;;;;;;;;;5000692;28;20042;-91
2022/06/04 08:10:53;;;;;;;6.65;4.93;;;;;;;;;;5008434;28;20041;-91
2022/06/04 08:13:31;;;;;;;6.57;5.25;;;;;;;;;;5012339;28;20053;-92
2022/06/04 08:15:58;;;;;;;6.20;5.25;;;;;;;;;;5007548;28;20022;-91
2022/06/04 08:18:25;;;;;;;5.85;4.78;;;;;;;;;;5013180;28;20113;-91
2022/06/04 08:20:52;;;;;;;5.93;5.32;;;;;;;;;;5014389;28;20087;-91
2022/06/04 08:23:19;;;;;;;7.07;4.95;;;;;;;;;;5014623;28;20040;-92
2022/06/04 08:25:47;;;;;;;7.95;5.60;;;;;;;;;;5016285;28;20030;-90
2022/06/04 08:28:15;;;;;;;5.97;5.28;;;;;;;;;;5014579;28;20037;-89
2022/06/04 08:30:42;;;;;;;5.57;4.97;;;;;;;;;;5013993;28;20116;-90
2022/06/04 08:33:08;;;;;;;6.68;5.00;;;;;;;;;;5014118;28;20545;-90
2022/06/04 08:35:35;;;;;;;5.70;5.10;;;;;;;;;;4996207;28;20076;-89
2022/06/04 08:38:01;;;;;;;8.20;5.10;;;;;;;;;;5010967;28;20392;-90
2022/06/04 08:40:27;;;;;;;8.43;6.22;;;;;;;;;;4995421;28;20045;-90
2022/06/04 08:43:01;;;;;;;6.93;5.38;;;;;;;;;;5011071;28;20026;-90
2022/06/04 08:45:27;;;;;;;5.60;5.10;;;;;;;;;;4995771;28;20053;-90
2022/06/04 08:47:53;;;;;;;5.75;5.22;;;;;;;;;;4995746;28;20476;-90
2022/06/04 08:50:21;;;;;;;6.10;5.32;;;;;;;;;;4995824;28;20057;-90
2022/06/04 08:52:56;;;;;;;6.13;5.57;;;;;;;;;;5010832;28;20477;-91
2022/06/04 08:58:21;;;;;;;7.57;5.53;;;;;;;;;;4974343;28;20133;-90
2022/06/04 09:00:51;;;;;;;6.18;5.40;;;;;;;;;;5013580;28;20133;-91
2022/06/04 09:03:23;;;;;;;6.47;5.53;;;;;;;;;;5013567;28;20030;-90
2022/06/04 09:06:00;;;;;;;9.63;5.20;;;;;;;;;;5013163;28;20429;-90
2022/06/04 09:08:46;;;;;;;9.98;6.60;;;;;;;;;;5013773;28;20125;-91
2022/06/04 09:11:16;;;;;;;9.35;6.35;;;;;;;;;;5013347;28;20068;-90
2022/06/04 09:14:04;;;;;;;11.00;7.07;;;;;;;;;;5014925;28;20030;-90
2022/06/04 09:16:32;;;;;;;7.07;6.35;;;;;;;;;;5013120;28;20022;-91
2022/06/04 09:19:00;;;;;;;9.98;6.97;;;;;;;;;;5013349;28;20492;-90
2022/06/04 09:21:29;;;;;;;7.72;6.97;;;;;;;;;;5013949;28;20014;-90
2022/06/04 09:23:55;;;;;;;9.50;6.80;;;;;;;;;;5013213;28;20033;-91
2022/06/04 09:26:25;;;;;;;7.35;6.47;;;;;;;;;;5013150;28;20030;-91
2022/06/04 09:28:57;;;;;;;9.43;6.82;;;;;;;;;;5012871;28;20121;-91
2022/06/04 09:31:23;;;;;;;9.02;6.50;;;;;;;;;;5014298;28;20623;-91
2022/06/04 09:34:01;;;;;;;9.45;7.18;;;;;;;;;;5036214;28;20110;-92
2022/06/04 09:36:30;;;;;;;7.88;7.05;;;;;;;;;;5023078;28;20490;-90
2022/06/04 09:38:59;;;;;;;9.20;8.23;;;;;;;;;;5014507;28;20439;-89
2022/06/04 09:41:25;;;;;;;11.10;7.47;;;;;;;;;;5012956;28;20054;-90
2022/06/04 09:44:08;;;;;;;14.25;7.80;;;;;;;;;;5014228;28;20022;-89
2022/06/04 09:46:35;;;;;;;10.98;7.75;;;;;;;;;;5012958;28;20030;-89
2022/06/04 09:49:03;;;;;;;8.90;7.82;;;;;;;;;;5012627;28;20041;-90
2022/06/04 09:51:30;;;;;;;8.32;6.85;;;;;;;;;;5013809;28;20022;-91
2022/06/04 09:54:03;;;;;;;9.65;8.10;;;;;;;;;;5013787;28;20041;-90
2022/06/04 09:56:29;;;;;;;15.23;11.45;;;;;;;;;;5014107;28;20476;-90
2022/06/04 09:58:55;;;;;;;8.27;6.80;;;;;;;;;;5014112;28;20033;-90
2022/06/04 10:01:23;;;;;;;8.00;7.18;;;;;;;;;;5012444;28;20391;-90
2022/06/04 10:04:02;;;;;;;7.57;6.85;;;;;;;;;;5012179;28;20022;-90
2022/06/04 10:06:28;;;;;;;11.27;8.18;;;;;;;;;;5012214;28;20479;-88
2022/06/04 10:11:50;;;;;;;11.85;9.60;;;;;;;;;;5014208;28;20036;-89
2022/06/04 10:14:16;;;;;;;10.27;7.32;;;;;;;;;;5012319;28;20041;-89
2022/06/04 10:16:46;;;;;;;7.93;7.13;;;;;;;;;;5012755;28;20022;-91
2022/06/04 10:19:16;;;;;;;12.90;6.90;;;;;;;;;;5014032;28;20036;-90
2022/06/04 10:21:44;;;;;;;8.20;6.68;;;;;;;;;;5013851;28;20081;-90
2022/06/04 10:24:20;;;;;;;7.20;6.18;;;;;;;;;;5012411;28;20132;-91
2022/06/04 10:27:22;;;;;;;8.88;6.85;;;;;;;;;;4993639;28;20404;-91
2022/06/04 10:30:07;;;;;;;7.65;6.85;;;;;;;;;;4933539;29;20162;-89
2022/06/04 10:32:33;;;;;;;9.23;6.97;;;;;;;;;;4988292;28;20068;-91
2022/06/04 10:35:02;;;;;;;7.80;6.55;;;;;;;;;;4993602;28;20451;-89
2022/06/04 10:37:48;;;;;;;8.00;6.75;;;;;;;;;;4992137;28;20562;-90
2022/06/04 10:40:21;;;;;;;9.15;6.60;;;;;;;;;;5007808;28;20093;-89
2022/06/04 10:42:56;;;;;;;8.63;6.50;;;;;;;;;;4993560;28;20113;-90
2022/06/04 10:45:41;;;;;;;6.53;5.78;;;;;;;;;;4993204;28;20086;-89
2022/06/04 10:48:11;;;;;;;7.47;6.75;;;;;;;;;;4993334;28;20069;-91
2022/06/04 10:53:56;;;;;;;7.18;6.38;;;;;;;;;;4993157;28;20817;-90
2022/06/04 10:56:35;;;;;;;6.40;5.72;;;;;;;;;;4993250;28;20045;-90
2022/06/04 10:59:16;;;;;;;8.93;6.10;;;;;;;;;;4992096;28;20025;-89
2022/06/04 11:01:46;;;;;;;8.52;6.30;;;;;;;;;;4991656;28;20036;-90
2022/06/04 11:04:33;;;;;;;7.03;5.88;;;;;;;;;;4993302;28;20121;-91
2022/06/04 11:07:03;;;;;;;9.18;5.97;;;;;;;;;;4993408;28;20370;-91
2022/06/04 11:09:36;;;;;;;8.77;6.70;;;;;;;;;;4993300;28;20125;-90
2022/06/04 11:12:26;;;;;;;6.47;5.85;;;;;;;;;;4992534;28;20258;-89
2022/06/04 11:14:58;;;;;;;10.02;6.68;;;;;;;;;;4998995;28;20061;-88
2022/06/04 11:17:26;;;;;;;9.35;6.55;;;;;;;;;;5012345;28;20026;-89
2022/06/04 11:19:55;;;;;;;8.88;6.68;;;;;;;;;;5011688;28;20109;-90
2022/06/04 11:22:30;;;;;;;7.93;6.03;;;;;;;;;;5011967;28;20499;-90
2022/06/04 11:25:15;;;;;;;8.68;6.18;;;;;;;;;;5012375;28;20080;-88
2022/06/04 11:27:45;;;;;;;7.65;6.10;;;;;;;;;;5013388;28;20029;-90
2022/06/04 11:30:17;;;;;;;6.38;5.38;;;;;;;;;;5011212;28;20065;-90
2022/06/04 11:33:01;;;;;;;9.98;5.90;;;;;;;;;;5011413;28;20084;-90
2022/06/04 11:35:42;;;;;;;6.35;5.75;;;;;;;;;;5011758;28;20116;-91
2022/06/04 11:38:08;;;;;;;6.32;5.70;;;;;;;;;;5012207;28;20057;-90
2022/06/04 11:40:40;;;;;;;6.97;5.13;;;;;;;;;;5013068;28;20022;-90
2022/06/04 11:43:21;;;;;;;6.03;5.05;;;;;;;;;;5012887;28;20571;-90
2022/06/04 11:45:56;;;;;;;15.15;10.35;;;;;;;;;;5011663;28;20029;-91
2022/06/04 11:48:34;;;;;;;7.07;5.28;;;;;;;;;;5011644;28;20026;-90
2022/06/04 11:51:19;;;;;;;9.07;5.15;;;;;;;;;;5011242;28;20030;-93
2022/06/04 11:53:51;;;;;;;7.70;5.10;;;;;;;;;;5013097;28;20030;-91
2022/06/04 11:56:26;;;;;;;8.98;4.50;;;;;;;;;;5012827;28;20076;-90
2022/06/04 11:59:08;;;;;;;7.43;5.00;;;;;;;;;;5011433;28;20125;-89
2022/06/04 12:01:45;;;;;;;7.38;5.38;;;;;;;;;;5011273;28;20099;-90
2022/06/04 12:04:26;;;;;;;7.18;5.00;;;;;;;;;;5012847;28;20033;-90
2022/06/04 12:06:58;;;;;;;7.83;4.87;;;;;;;;;;5011305;28;20034;-89
2022/06/04 12:09:39;;;;;;;6.28;3.90;;;;;;;;;;5011631;28;20833;-89
2022/06/04 12:12:11;;;;;;;5.60;3.97;;;;;;;;;;5011344;28;20033;-90
2022/06/04 12:14:48;;;;;;;5.70;4.70;;;;;;;;;;5012326;28;20034;-89
2022/06/04 12:17:14;;;;;;;4.68;4.10;;;;;;;;;;5010969;28;20476;-90
2022/06/04 12:25:34;;;;;;;4.53;3.72;;;;;;;;;;5012128;28;20072;-91
2022/06/04 12:28:02;;;;;;;10.50;4.15;;;;;;;;;;5011594;28;20072;-90
2022/06/04 12:30:43;;;;;;;5.78;4.28;;;;;;;;;;5010180;28;20026;-90
2022/06/04 12:33:24;;;;;;;4.97;3.63;;;;;;;;;;5009537;28;20056;-90
2022/06/04 12:35:56;;;;;;;4.45;3.42;;;;;;;;;;5011138;28;20022;-90
2022/06/04 12:38:25;;;;;;;5.85;3.53;;;;;;;;;;5011316;28;20022;-91
2022/06/04 12:40:51;;;;;;;6.50;3.78;;;;;;;;;;5010610;28;20431;-90
2022/06/04 12:43:31;;;;;;;7.88;3.30;;;;;;;;;;5010905;28;20064;-91
2022/06/04 12:46:17;;;;;;;4.40;3.65;;;;;;;;;;5010293;28;20033;-91
2022/06/04 12:48:55;;;;;;;5.13;3.45;;;;;;;;;;5010121;28;20026;-91
2022/06/04 12:51:27;;;;;;;5.90;3.40;;;;;;;;;;5011332;28;20030;-91
2022/06/04 12:53:56;;;;;;;6.65;3.95;;;;;;;;;;5024810;23;20050;-88
2022/06/04 12:56:25;;;;;;;6.13;3.70;;;;;;;;;;4973202;28;20027;-87
2022/06/04 12:58:53;;;;;;;6.50;3.30;;;;;;;;;;4973993;28;20050;-88
2022/06/04 13:01:19;;;;;;;3.72;2.90;;;;;;;;;;4974448;28;20062;-88
2022/06/04 13:03:48;;;;;;;4.25;2.65;;;;;;;;;;4982664;28;20022;-87
2022/06/04 13:06:14;;;;;;;4.03;2.75;;;;;;;;;;4995210;28;20026;-87
2022/06/04 13:08:39;;;;;;;6.65;3.20;;;;;;;;;;4993222;28;20041;-88
2022/06/04 13:11:12;;;;;;;7.20;2.85;;;;;;;;;;4991154;28;20169;-88
2022/06/04 13:13:38;;;;;;;4.18;2.70;;;;;;;;;;4975677;28;20620;-87
2022/06/04 13:16:05;;;;;;;2.70;2.50;;;;;;;;;;4983587;28;20549;-86
2022/06/04 13:18:34;;;;;;;3.25;2.60;;;;;;;;;;4995111;28;20030;-87
2022/06/04 13:21:01;;;;;;;2.80;2.60;;;;;;;;;;4993419;28;20022;-88
2022/06/04 13:23:44;;;;;;;6.97;2.97;;;;;;;;;;5003584;28;20086;-86
2022/06/04 13:26:25;;;;;;;5.40;3.25;;;;;;;;;;4999699;28;20026;-83
2022/06/04 13:28:56;;;;;;;4.10;3.20;;;;;;;;;;4997881;28;20125;-87
2022/06/04 13:31:25;;;;;;;5.25;3.83;;;;;;;;;;4993368;28;20038;-86
2022/06/04 13:33:52;;;;;;;3.95;3.40;;;;;;;;;;4993613;28;20185;-87
2022/06/04 13:36:25;;;;;;;4.35;3.25;;;;;;;;;;5006028;28;20043;-86
2022/06/04 13:38:53;;;;;;;3.60;3.30;;;;;;;;;;4998173;28;20022;-89
2022/06/04 13:44:08;;;;;;;4.45;3.63;;;;;;;;;;4995054;28;20081;-87
2022/06/04 13:46:34;;;;;;;3.67;3.20;;;;;;;;;;4994183;28;20042;-87
2022/06/04 13:49:11;;;;;;;4.82;3.33;;;;;;;;;;4994640;28;20041;-87
2022/06/04 13:51:45;;;;;;;6.05;3.47;;;;;;;;;;4992889;28;20031;-87
2022/06/04 13:54:30;;;;;;;5.90;3.67;;;;;;;;;;4994227;28;20057;-87
2022/06/04 13:56:58;;;;;;;5.50;3.53;;;;;;;;;;4994380;28;20023;-87
2022/06/04 13:59:27;;;;;;;5.10;3.10;;;;;;;;;;4992588;28;20022;-87
2022/06/04 14:01:58;;;;;;;4.78;3.67;;;;;;;;;;4992989;28;20018;-85
2022/06/04 14:07:11;;;;;;;4.40;3.00;;;;;;;;;;4994579;28;20045;-88
2022/06/04 14:09:38;;;;;;;6.45;3.40;;;;;;;;;;4993119;28;20053;-88
2022/06/04 14:12:09;;;;;;;5.00;3.42;;;;;;;;;;4993964;28;20026;-86
2022/06/04 14:14:44;;;;;;;3.28;2.97;;;;;;;;;;4993665;28;20034;-87
2022/06/04 14:17:22;;;;;;;3.83;3.42;;;;;;;;;;4988722;28;20023;-86
2022/06/04 14:20:08;;;;;;;4.53;4.03;;;;;;;;;;4986169;28;20033;-86
2022/06/04 14:22:44;;;;;;;5.35;3.83;;;;;;;;;;4979688;28;20041;-86
2022/06/04 14:25:37;;;;;;;5.05;3.47;;;;;;;;;;4993666;28;20018;-86
2022/06/04 14:28:06;;;;;;;4.28;3.72;;;;;;;;;;5005953;28;20046;-87
2022/06/04 14:30:46;;;;;;;4.07;3.67;;;;;;;;;;4993712;28;20026;-87
2022/06/04 14:33:22;;;;;;;5.50;4.18;;;;;;;;;;4993141;28;20416;-87
2022/06/04 14:36:15;;;;;;;3.88;3.40;;;;;;;;;;4993638;28;20027;-86
2022/06/04 14:38:41;;;;;;;4.10;3.40;;;;;;;;;;4991313;28;20031;-88
2022/06/04 14:41:22;;;;;;;5.93;3.40;;;;;;;;;;4991704;28;20113;-87
2022/06/04 14:43:53;;;;;;;5.38;3.25;;;;;;;;;;4993201;28;20080;-87
2022/06/04 14:46:38;;;;;;;4.97;3.75;;;;;;;;;;4992315;28;20033;-87
2022/06/04 14:49:23;;;;;;;4.90;3.70;;;;;;;;;;4993004;28;20712;-88
2022/06/04 14:51:49;;;;;;;6.13;3.85;;;;;;;;;;4992513;28;20054;-87
2022/06/04 14:54:15;;;;;;;6.15;3.60;;;;;;;;;;4992938;28;20034;-87
2022/06/04 14:56:58;;;;;;;5.93;4.22;;;;;;;;;;4992825;28;20030;-87
2022/06/04 14:59:36;;;;;;;5.22;4.13;;;;;;;;;;4991864;28;20145;-87
2022/06/04 15:02:15;;;;;;;5.00;4.50;;;;;;;;;;5012824;28;20038;-87
2022/06/04 15:05:05;;;;;;;5.18;4.68;;;;;;;;;;5015970;28;20010;-83
2022/06/04 15:07:31;;;;;;;7.13;5.10;;;;;;;;;;5000531;28;20093;-87
2022/06/04 15:10:15;;;;;;;5.97;4.72;;;;;;;;;;4992007;28;20073;-86
2022/06/04 15:12:57;;;;;;;7.32;5.00;;;;;;;;;;4991331;28;20049;-87
2022/06/04 15:15:34;;;;;;;5.68;5.18;;;;;;;;;;4991310;28;20031;-86
2022/06/04 15:18:00;;;;;;;5.97;4.78;;;;;;;;;;4990925;28;20022;-88
2022/06/04 15:20:32;;;;;;;5.47;4.95;;;;;;;;;;4992765;28;20448;-88
2022/06/04 15:23:17;;;;;;;5.95;4.53;;;;;;;;;;5001273;28;20037;-86
2022/06/04 15:25:49;;;;;;;6.75;4.75;;;;;;;;;;4981165;28;20480;-88
2022/06/04 15:33:57;;;;;;;7.35;4.20;;;;;;;;;;4978137;28;20034;-87
2022/06/04 15:36:43;;;;;;;5.55;3.90;;;;;;;;;;4979171;28;20059;-85